sensor_id;sensor_type;location;lat;lon;timestamp;P1;durP1;ratioP1;P2;durP2;ratioP2
934;SDS011;454;53.254;10.400;2022-09-09T04:01:26;4.63;;;4.22;;
934;SDS011;454;53.254;10.400;2022-09-09T04:03:54;7.47;;;5.95;;
934;SDS011;454;53.254;10.400;2022-09-09T04:06:23;5.85;;;4.68;;
934;SDS011;454;53.254;10.400;2022-09-09T04:08:50;5.35;;;4.78;;
934;SDS011;454;53.254;10.400;2022-09-09T04:11:17;8.50;;;4.65;;
934;SDS011;454;53.254;10.400;2022-09-09T04:13:44;5.88;;;4.63;;
934;SDS011;454;53.254;10.400;2022-09-09T04:16:11;4.70;;;4.32;;
934;SDS011;454;53.254;10.400;2022-09-09T04:18:40;4.55;;;4.05;;
934;SDS011;454;53.254;10.400;2022-09-09T04:21:08;6.38;;;5.82;;
934;SDS011;454;53.254;10.400;2022-09-09T04:23:36;5.57;;;4.83;;
934;SDS011;454;53.254;10.400;2022-09-09T04:26:02;6.22;;;5.13;;
934;SDS011;454;53.254;10.400;2022-09-09T04:28:31;5.10;;;4.57;;
934;SDS011;454;53.254;10.400;2022-09-09T04:31:03;5.60;;;4.53;;
934;SDS011;454;53.254;10.400;2022-09-09T04:33:31;5.43;;;5.00;;
934;SDS011;454;53.254;10.400;2022-09-09T04:35:59;9.15;;;5.20;;
934;SDS011;454;53.254;10.400;2022-09-09T04:38:26;4.72;;;4.40;;
934;SDS011;454;53.254;10.400;2022-09-09T04:40:52;5.13;;;4.72;;
934;SDS011;454;53.254;10.400;2022-09-09T04:43:19;4.72;;;4.38;;
934;SDS011;454;53.254;10.400;2022-09-09T04:45:47;9.23;;;4.82;;
934;SDS011;454;53.254;10.400;2022-09-09T04:48:15;5.18;;;4.70;;
934;SDS011;454;53.254;10.400;2022-09-09T04:50:41;6.93;;;4.53;;
934;SDS011;454;53.254;10.400;2022-09-09T04:53:09;5.43;;;5.03;;
934;SDS011;454;53.254;10.400;2022-09-09T04:55:36;6.90;;;5.30;;
934;SDS011;454;53.254;10.400;2022-09-09T04:58:03;7.53;;;4.87;;
934;SDS011;454;53.254;10.400;2022-09-09T05:00:31;4.65;;;4.35;;
934;SDS011;454;53.254;10.400;2022-09-09T05:02:58;3.73;;;3.57;;
934;SDS011;454;53.254;10.400;2022-09-09T05:05:29;3.27;;;3.03;;
934;SDS011;454;53.254;10.400;2022-09-09T05:08:00;8.10;;;3.80;;
934;SDS011;454;53.254;10.400;2022-09-09T05:10:28;3.17;;;2.93;;
934;SDS011;454;53.254;10.400;2022-09-09T05:12:55;4.13;;;3.70;;
934;SDS011;454;53.254;10.400;2022-09-09T05:15:22;2.90;;;2.70;;
934;SDS011;454;53.254;10.400;2022-09-09T05:17:49;7.33;;;4.60;;
934;SDS011;454;53.254;10.400;2022-09-09T05:20:17;4.87;;;4.57;;
934;SDS011;454;53.254;10.400;2022-09-09T05:22:44;3.37;;;3.17;;
934;SDS011;454;53.254;10.400;2022-09-09T05:25:10;4.03;;;3.70;;
934;SDS011;454;53.254;10.400;2022-09-09T05:27:39;4.57;;;3.53;;
934;SDS011;454;53.254;10.400;2022-09-09T05:30:06;3.53;;;2.77;;
934;SDS011;454;53.254;10.400;2022-09-09T05:32:33;4.30;;;4.00;;
934;SDS011;454;53.254;10.400;2022-09-09T05:35:01;3.43;;;3.17;;
934;SDS011;454;53.254;10.400;2022-09-09T05:37:30;5.40;;;3.83;;
934;SDS011;454;53.254;10.400;2022-09-09T05:39:56;3.53;;;3.30;;
934;SDS011;454;53.254;10.400;2022-09-09T05:42:23;4.73;;;4.33;;
934;SDS011;454;53.254;10.400;2022-09-09T05:44:52;5.33;;;3.80;;
934;SDS011;454;53.254;10.400;2022-09-09T05:47:19;2.80;;;2.70;;
934;SDS011;454;53.254;10.400;2022-09-09T05:49:46;2.63;;;2.53;;
934;SDS011;454;53.254;10.400;2022-09-09T05:52:13;2.97;;;2.87;;
934;SDS011;454;53.254;10.400;2022-09-09T05:54:39;2.23;;;2.13;;
934;SDS011;454;53.254;10.400;2022-09-09T05:57:07;2.80;;;2.70;;
934;SDS011;454;53.254;10.400;2022-09-09T05:59:34;4.10;;;3.90;;
934;SDS011;454;53.254;10.400;2022-09-09T06:02:02;3.03;;;2.63;;
934;SDS011;454;53.254;10.400;2022-09-09T06:04:29;2.37;;;2.30;;
934;SDS011;454;53.254;10.400;2022-09-09T06:06:56;2.07;;;1.97;;
934;SDS011;454;53.254;10.400;2022-09-09T06:09:22;1.70;;;1.70;;
934;SDS011;454;53.254;10.400;2022-09-09T06:11:49;1.97;;;1.87;;
934;SDS011;454;53.254;10.400;2022-09-09T06:14:16;2.50;;;2.30;;
934;SDS011;454;53.254;10.400;2022-09-09T06:16:43;1.40;;;1.40;;
934;SDS011;454;53.254;10.400;2022-09-09T06:19:12;1.57;;;1.47;;
934;SDS011;454;53.254;10.400;2022-09-09T06:21:39;2.20;;;2.10;;
934;SDS011;454;53.254;10.400;2022-09-09T06:24:07;2.30;;;2.20;;
934;SDS011;454;53.254;10.400;2022-09-09T06:26:34;5.70;;;2.83;;
934;SDS011;454;53.254;10.400;2022-09-09T06:29:02;1.83;;;1.83;;
934;SDS011;454;53.254;10.400;2022-09-09T06:31:30;1.50;;;1.50;;
934;SDS011;454;53.254;10.400;2022-09-09T06:34:00;2.23;;;2.13;;
934;SDS011;454;53.254;10.400;2022-09-09T06:36:28;2.00;;;1.90;;
934;SDS011;454;53.254;10.400;2022-09-09T06:38:56;2.93;;;1.80;;
934;SDS011;454;53.254;10.400;2022-09-09T06:41:24;1.73;;;1.73;;
934;SDS011;454;53.254;10.400;2022-09-09T06:43:52;2.20;;;2.10;;
934;SDS011;454;53.254;10.400;2022-09-09T06:46:21;2.73;;;1.43;;
934;SDS011;454;53.254;10.400;2022-09-09T06:48:48;2.17;;;2.17;;
934;SDS011;454;53.254;10.400;2022-09-09T06:51:16;1.73;;;1.63;;
934;SDS011;454;53.254;10.400;2022-09-09T06:53:47;2.60;;;2.50;;
934;SDS011;454;53.254;10.400;2022-09-09T06:56:20;2.63;;;2.23;;
934;SDS011;454;53.254;10.400;2022-09-09T06:58:49;2.03;;;1.73;;
934;SDS011;454;53.254;10.400;2022-09-09T07:01:17;2.03;;;1.93;;
934;SDS011;454;53.254;10.400;2022-09-09T07:03:45;2.43;;;2.33;;
934;SDS011;454;53.254;10.400;2022-09-09T07:06:15;1.57;;;1.57;;
934;SDS011;454;53.254;10.400;2022-09-09T07:08:44;3.00;;;2.60;;
934;SDS011;454;53.254;10.400;2022-09-09T07:11:17;1.80;;;1.80;;
934;SDS011;454;53.254;10.400;2022-09-09T07:13:45;1.57;;;1.57;;
934;SDS011;454;53.254;10.400;2022-09-09T07:16:14;2.30;;;2.20;;
934;SDS011;454;53.254;10.400;2022-09-09T07:18:42;2.67;;;1.83;;
934;SDS011;454;53.254;10.400;2022-09-09T07:21:09;4.00;;;2.37;;
934;SDS011;454;53.254;10.400;2022-09-09T07:23:38;2.40;;;2.30;;
934;SDS011;454;53.254;10.400;2022-09-09T07:26:08;1.80;;;1.70;;
934;SDS011;454;53.254;10.400;2022-09-09T07:28:36;1.87;;;1.87;;
934;SDS011;454;53.254;10.400;2022-09-09T07:31:04;6.63;;;2.07;;
934;SDS011;454;53.254;10.400;2022-09-09T07:33:32;2.50;;;2.40;;
934;SDS011;454;53.254;10.400;2022-09-09T07:36:04;1.30;;;1.30;;
934;SDS011;454;53.254;10.400;2022-09-09T07:38:37;2.87;;;1.67;;
934;SDS011;454;53.254;10.400;2022-09-09T07:41:05;1.60;;;1.60;;
934;SDS011;454;53.254;10.400;2022-09-09T07:43:38;1.27;;;1.27;;
934;SDS011;454;53.254;10.400;2022-09-09T07:46:05;2.03;;;2.03;;
934;SDS011;454;53.254;10.400;2022-09-09T07:48:33;1.63;;;1.63;;
934;SDS011;454;53.254;10.400;2022-09-09T07:51:04;1.43;;;1.43;;
934;SDS011;454;53.254;10.400;2022-09-09T07:53:33;1.93;;;1.93;;
934;SDS011;454;53.254;10.400;2022-09-09T07:56:04;1.63;;;1.53;;
934;SDS011;454;53.254;10.400;2022-09-09T07:58:34;1.57;;;1.57;;
934;SDS011;454;53.254;10.400;2022-09-09T08:01:06;1.67;;;1.57;;
934;SDS011;454;53.254;10.400;2022-09-09T08:03:34;1.67;;;1.57;;
934;SDS011;454;53.254;10.400;2022-09-09T08:06:01;3.93;;;2.30;;
934;SDS011;454;53.254;10.400;2022-09-09T08:08:28;1.27;;;1.27;;
934;SDS011;454;53.254;10.400;2022-09-09T08:11:01;1.70;;;1.70;;
934;SDS011;454;53.254;10.400;2022-09-09T08:13:28;1.40;;;1.40;;
934;SDS011;454;53.254;10.400;2022-09-09T08:16:02;1.30;;;1.30;;
934;SDS011;454;53.254;10.400;2022-09-09T08:18:32;1.50;;;1.50;;
934;SDS011;454;53.254;10.400;2022-09-09T08:21:04;4.33;;;1.50;;
934;SDS011;454;53.254;10.400;2022-09-09T08:23:33;1.40;;;1.40;;
934;SDS011;454;53.254;10.400;2022-09-09T08:26:03;1.30;;;1.30;;
934;SDS011;454;53.254;10.400;2022-09-09T08:28:30;1.53;;;1.53;;
934;SDS011;454;53.254;10.400;2022-09-09T08:31:04;1.40;;;1.40;;
934;SDS011;454;53.254;10.400;2022-09-09T08:33:36;2.10;;;1.10;;
934;SDS011;454;53.254;10.400;2022-09-09T08:36:04;5.43;;;1.70;;
934;SDS011;454;53.254;10.400;2022-09-09T08:38:32;2.30;;;1.60;;
934;SDS011;454;53.254;10.400;2022-09-09T08:41:00;1.00;;;1.00;;
934;SDS011;454;53.254;10.400;2022-09-09T08:43:43;1.07;;;1.07;;
934;SDS011;454;53.254;10.400;2022-09-09T08:46:15;0.90;;;0.90;;
934;SDS011;454;53.254;10.400;2022-09-09T08:48:50;1.40;;;1.40;;
934;SDS011;454;53.254;10.400;2022-09-09T08:51:23;1.30;;;1.30;;
934;SDS011;454;53.254;10.400;2022-09-09T08:53:52;1.03;;;1.03;;
934;SDS011;454;53.254;10.400;2022-09-09T08:56:21;1.20;;;1.10;;
934;SDS011;454;53.254;10.400;2022-09-09T08:58:50;1.20;;;1.20;;
934;SDS011;454;53.254;10.400;2022-09-09T09:01:23;3.70;;;1.40;;
934;SDS011;454;53.254;10.400;2022-09-09T09:04:02;1.10;;;1.10;;
934;SDS011;454;53.254;10.400;2022-09-09T09:06:40;1.27;;;1.27;;
934;SDS011;454;53.254;10.400;2022-09-09T09:09:17;1.40;;;1.40;;
934;SDS011;454;53.254;10.400;2022-09-09T09:11:49;1.63;;;1.63;;
934;SDS011;454;53.254;10.400;2022-09-09T09:14:18;1.37;;;1.37;;
934;SDS011;454;53.254;10.400;2022-09-09T09:16:48;1.40;;;1.40;;
934;SDS011;454;53.254;10.400;2022-09-09T09:19:20;3.30;;;1.57;;
934;SDS011;454;53.254;10.400;2022-09-09T09:21:51;1.40;;;1.40;;
934;SDS011;454;53.254;10.400;2022-09-09T09:24:26;1.43;;;1.43;;
934;SDS011;454;53.254;10.400;2022-09-09T09:27:00;1.50;;;1.50;;
934;SDS011;454;53.254;10.400;2022-09-09T09:29:37;1.33;;;1.33;;
934;SDS011;454;53.254;10.400;2022-09-09T09:32:07;1.23;;;1.13;;
934;SDS011;454;53.254;10.400;2022-09-09T09:34:41;1.03;;;1.03;;
934;SDS011;454;53.254;10.400;2022-09-09T09:37:12;1.23;;;1.23;;
934;SDS011;454;53.254;10.400;2022-09-09T09:39:44;1.30;;;1.30;;
934;SDS011;454;53.254;10.400;2022-09-09T09:42:12;1.00;;;1.00;;
934;SDS011;454;53.254;10.400;2022-09-09T09:44:42;1.00;;;1.00;;
934;SDS011;454;53.254;10.400;2022-09-09T09:47:10;1.03;;;1.03;;
934;SDS011;454;53.254;10.400;2022-09-09T09:49:39;1.03;;;1.03;;
934;SDS011;454;53.254;10.400;2022-09-09T09:52:18;1.10;;;1.10;;
934;SDS011;454;53.254;10.400;2022-09-09T09:54:48;1.40;;;1.40;;
934;SDS011;454;53.254;10.400;2022-09-09T09:57:16;1.07;;;1.07;;
934;SDS011;454;53.254;10.400;2022-09-09T09:59:43;1.13;;;1.13;;
934;SDS011;454;53.254;10.400;2022-09-09T10:02:13;1.50;;;1.40;;
934;SDS011;454;53.254;10.400;2022-09-09T10:04:42;0.80;;;0.80;;
934;SDS011;454;53.254;10.400;2022-09-09T10:07:10;1.40;;;0.93;;
934;SDS011;454;53.254;10.400;2022-09-09T10:09:39;2.83;;;1.07;;
934;SDS011;454;53.254;10.400;2022-09-09T10:12:08;0.57;;;0.57;;
934;SDS011;454;53.254;10.400;2022-09-09T10:14:47;1.60;;;0.90;;
934;SDS011;454;53.254;10.400;2022-09-09T10:17:22;0.70;;;0.70;;
934;SDS011;454;53.254;10.400;2022-09-09T10:19:58;1.10;;;1.10;;
934;SDS011;454;53.254;10.400;2022-09-09T10:22:38;0.70;;;0.70;;
934;SDS011;454;53.254;10.400;2022-09-09T10:25:16;1.20;;;0.70;;
934;SDS011;454;53.254;10.400;2022-09-09T10:28:19;0.63;;;0.63;;
934;SDS011;454;53.254;10.400;2022-09-09T10:31:08;1.10;;;1.10;;
934;SDS011;454;53.254;10.400;2022-09-09T10:33:46;0.40;;;0.40;;
934;SDS011;454;53.254;10.400;2022-09-09T10:36:17;0.70;;;0.70;;
934;SDS011;454;53.254;10.400;2022-09-09T10:38:47;1.47;;;0.70;;
934;SDS011;454;53.254;10.400;2022-09-09T10:41:19;0.50;;;0.50;;
934;SDS011;454;53.254;10.400;2022-09-09T10:43:59;0.50;;;0.50;;
934;SDS011;454;53.254;10.400;2022-09-09T10:46:48;0.63;;;0.63;;
934;SDS011;454;53.254;10.400;2022-09-09T10:49:54;0.50;;;0.50;;
934;SDS011;454;53.254;10.400;2022-09-09T10:52:36;0.97;;;0.77;;
934;SDS011;454;53.254;10.400;2022-09-09T10:55:09;0.40;;;0.40;;
934;SDS011;454;53.254;10.400;2022-09-09T10:57:41;0.50;;;0.50;;
934;SDS011;454;53.254;10.400;2022-09-09T11:00:14;0.50;;;0.50;;
934;SDS011;454;53.254;10.400;2022-09-09T11:02:44;0.60;;;0.60;;
934;SDS011;454;53.254;10.400;2022-09-09T11:05:14;0.60;;;0.60;;
934;SDS011;454;53.254;10.400;2022-09-09T11:07:47;0.40;;;0.40;;
934;SDS011;454;53.254;10.400;2022-09-09T11:10:19;0.97;;;0.70;;
934;SDS011;454;53.254;10.400;2022-09-09T11:12:52;0.50;;;0.50;;
934;SDS011;454;53.254;10.400;2022-09-09T11:15:23;0.33;;;0.33;;
934;SDS011;454;53.254;10.400;2022-09-09T11:17:57;0.43;;;0.43;;
934;SDS011;454;53.254;10.400;2022-09-09T11:20:27;0.60;;;0.60;;
934;SDS011;454;53.254;10.400;2022-09-09T11:22:55;0.90;;;0.90;;
934;SDS011;454;53.254;10.400;2022-09-09T11:25:26;1.50;;;1.00;;
934;SDS011;454;53.254;10.400;2022-09-09T11:28:04;0.63;;;0.63;;
934;SDS011;454;53.254;10.400;2022-09-09T11:30:44;0.67;;;0.67;;
934;SDS011;454;53.254;10.400;2022-09-09T11:33:31;0.90;;;0.87;;
934;SDS011;454;53.254;10.400;2022-09-09T11:36:19;0.50;;;0.50;;
934;SDS011;454;53.254;10.400;2022-09-09T11:39:12;0.87;;;0.80;;
934;SDS011;454;53.254;10.400;2022-09-09T11:42:05;0.67;;;0.67;;
934;SDS011;454;53.254;10.400;2022-09-09T11:44:35;0.80;;;0.80;;
934;SDS011;454;53.254;10.400;2022-09-09T11:47:01;2.73;;;1.00;;
934;SDS011;454;53.254;10.400;2022-09-09T11:52:37;1.63;;;1.63;;
934;SDS011;454;53.254;10.400;2022-09-09T11:55:11;2.80;;;1.40;;
934;SDS011;454;53.254;10.400;2022-09-09T11:57:56;0.80;;;0.80;;
934;SDS011;454;53.254;10.400;2022-09-09T12:00:29;3.30;;;1.07;;
934;SDS011;454;53.254;10.400;2022-09-09T12:02:59;0.80;;;0.80;;
934;SDS011;454;53.254;10.400;2022-09-09T12:05:34;1.13;;;1.00;;
934;SDS011;454;53.254;10.400;2022-09-09T12:08:03;1.10;;;1.10;;
934;SDS011;454;53.254;10.400;2022-09-09T12:10:32;1.40;;;1.40;;
934;SDS011;454;53.254;10.400;2022-09-09T12:13:08;1.93;;;1.70;;
934;SDS011;454;53.254;10.400;2022-09-09T12:15:47;1.73;;;1.73;;
934;SDS011;454;53.254;10.400;2022-09-09T12:18:16;1.37;;;1.37;;
934;SDS011;454;53.254;10.400;2022-09-09T12:20:51;1.20;;;1.20;;
934;SDS011;454;53.254;10.400;2022-09-09T12:23:25;1.20;;;1.10;;
934;SDS011;454;53.254;10.400;2022-09-09T12:26:03;1.60;;;1.60;;
934;SDS011;454;53.254;10.400;2022-09-09T12:28:51;2.17;;;2.07;;
934;SDS011;454;53.254;10.400;2022-09-09T12:31:34;1.50;;;1.50;;
934;SDS011;454;53.254;10.400;2022-09-09T12:34:10;1.23;;;1.23;;
934;SDS011;454;53.254;10.400;2022-09-09T12:36:39;1.07;;;1.07;;
934;SDS011;454;53.254;10.400;2022-09-09T12:39:10;0.90;;;0.90;;
934;SDS011;454;53.254;10.400;2022-09-09T12:41:50;1.87;;;1.53;;
934;SDS011;454;53.254;10.400;2022-09-09T12:44:21;1.30;;;1.30;;
934;SDS011;454;53.254;10.400;2022-09-09T12:46:49;1.80;;;1.70;;
934;SDS011;454;53.254;10.400;2022-09-09T12:49:24;1.00;;;1.00;;
934;SDS011;454;53.254;10.400;2022-09-09T12:51:56;1.30;;;1.30;;
934;SDS011;454;53.254;10.400;2022-09-09T12:54:23;1.30;;;1.30;;
934;SDS011;454;53.254;10.400;2022-09-09T12:56:50;0.83;;;0.83;;
934;SDS011;454;53.254;10.400;2022-09-09T12:59:21;1.27;;;1.27;;
934;SDS011;454;53.254;10.400;2022-09-09T13:01:56;1.00;;;1.00;;
934;SDS011;454;53.254;10.400;2022-09-09T13:04:23;2.53;;;1.33;;
934;SDS011;454;53.254;10.400;2022-09-09T13:06:49;1.17;;;1.17;;
934;SDS011;454;53.254;10.400;2022-09-09T13:09:17;1.20;;;1.20;;
934;SDS011;454;53.254;10.400;2022-09-09T13:11:45;0.83;;;0.83;;
934;SDS011;454;53.254;10.400;2022-09-09T13:14:16;1.13;;;1.13;;
934;SDS011;454;53.254;10.400;2022-09-09T13:16:56;7.47;;;1.63;;
934;SDS011;454;53.254;10.400;2022-09-09T13:19:24;1.10;;;1.10;;
934;SDS011;454;53.254;10.400;2022-09-09T13:21:52;1.10;;;1.10;;
934;SDS011;454;53.254;10.400;2022-09-09T13:24:27;9.10;;;1.23;;
934;SDS011;454;53.254;10.400;2022-09-09T13:26:56;1.20;;;1.20;;
934;SDS011;454;53.254;10.400;2022-09-09T13:29:23;1.07;;;1.07;;
934;SDS011;454;53.254;10.400;2022-09-09T13:31:50;1.87;;;1.87;;
934;SDS011;454;53.254;10.400;2022-09-09T13:34:27;1.20;;;1.20;;
934;SDS011;454;53.254;10.400;2022-09-09T13:36:57;0.83;;;0.83;;
934;SDS011;454;53.254;10.400;2022-09-09T13:39:27;1.43;;;1.30;;
934;SDS011;454;53.254;10.400;2022-09-09T13:41:54;1.40;;;1.40;;
934;SDS011;454;53.254;10.400;2022-09-09T13:44:22;1.10;;;1.00;;
934;SDS011;454;53.254;10.400;2022-09-09T13:47:02;0.97;;;0.97;;
934;SDS011;454;53.254;10.400;2022-09-09T13:49:32;0.90;;;0.90;;
934;SDS011;454;53.254;10.400;2022-09-09T13:52:03;1.07;;;1.07;;
934;SDS011;454;53.254;10.400;2022-09-09T13:54:32;0.97;;;0.97;;
934;SDS011;454;53.254;10.400;2022-09-09T13:56:59;1.00;;;1.00;;
934;SDS011;454;53.254;10.400;2022-09-09T13:59:27;1.10;;;1.10;;
934;SDS011;454;53.254;10.400;2022-09-09T14:01:54;1.27;;;1.27;;
934;SDS011;454;53.254;10.400;2022-09-09T14:04:21;1.40;;;1.30;;
934;SDS011;454;53.254;10.400;2022-09-09T14:06:50;0.80;;;0.77;;
934;SDS011;454;53.254;10.400;2022-09-09T14:09:18;1.07;;;1.07;;
934;SDS011;454;53.254;10.400;2022-09-09T14:11:45;0.53;;;0.53;;
934;SDS011;454;53.254;10.400;2022-09-09T14:14:12;1.67;;;0.97;;
934;SDS011;454;53.254;10.400;2022-09-09T14:16:38;0.70;;;0.70;;
934;SDS011;454;53.254;10.400;2022-09-09T14:19:05;0.50;;;0.50;;
934;SDS011;454;53.254;10.400;2022-09-09T14:21:33;0.50;;;0.50;;
934;SDS011;454;53.254;10.400;2022-09-09T14:24:02;1.90;;;1.03;;
934;SDS011;454;53.254;10.400;2022-09-09T14:26:29;0.33;;;0.33;;
934;SDS011;454;53.254;10.400;2022-09-09T14:28:55;0.50;;;0.50;;
934;SDS011;454;53.254;10.400;2022-09-09T14:31:22;1.00;;;1.00;;
934;SDS011;454;53.254;10.400;2022-09-09T14:33:50;0.40;;;0.40;;
934;SDS011;454;53.254;10.400;2022-09-09T14:36:17;0.60;;;0.60;;
934;SDS011;454;53.254;10.400;2022-09-09T14:38:44;0.60;;;0.60;;
934;SDS011;454;53.254;10.400;2022-09-09T14:41:13;0.43;;;0.43;;
934;SDS011;454;53.254;10.400;2022-09-09T14:43:43;0.50;;;0.50;;
934;SDS011;454;53.254;10.400;2022-09-09T14:46:10;0.73;;;0.73;;
934;SDS011;454;53.254;10.400;2022-09-09T14:48:38;0.40;;;0.40;;
934;SDS011;454;53.254;10.400;2022-09-09T14:51:06;3.23;;;0.73;;
934;SDS011;454;53.254;10.400;2022-09-09T14:53:33;4.33;;;0.87;;
934;SDS011;454;53.254;10.400;2022-09-09T14:56:04;1.40;;;0.70;;
934;SDS011;454;53.254;10.400;2022-09-09T14:58:33;0.57;;;0.57;;
934;SDS011;454;53.254;10.400;2022-09-09T15:01:03;3.93;;;3.63;;
934;SDS011;454;53.254;10.400;2022-09-09T15:03:30;1.10;;;1.10;;
934;SDS011;454;53.254;10.400;2022-09-09T15:05:58;0.73;;;0.73;;
934;SDS011;454;53.254;10.400;2022-09-09T15:08:30;1.27;;;0.67;;
934;SDS011;454;53.254;10.400;2022-09-09T15:10:58;0.73;;;0.73;;
934;SDS011;454;53.254;10.400;2022-09-09T15:13:26;0.60;;;0.60;;
934;SDS011;454;53.254;10.400;2022-09-09T15:15:54;0.60;;;0.60;;
934;SDS011;454;53.254;10.400;2022-09-09T15:18:22;0.80;;;0.80;;
934;SDS011;454;53.254;10.400;2022-09-09T15:20:50;1.17;;;1.17;;
934;SDS011;454;53.254;10.400;2022-09-09T15:23:18;1.50;;;1.50;;
934;SDS011;454;53.254;10.400;2022-09-09T15:25:51;1.17;;;1.17;;
934;SDS011;454;53.254;10.400;2022-09-09T15:28:18;1.13;;;1.13;;
934;SDS011;454;53.254;10.400;2022-09-09T15:30:46;1.03;;;0.77;;
934;SDS011;454;53.254;10.400;2022-09-09T15:33:15;0.60;;;0.60;;
934;SDS011;454;53.254;10.400;2022-09-09T15:35:42;0.87;;;0.87;;
934;SDS011;454;53.254;10.400;2022-09-09T15:38:08;0.83;;;0.83;;
934;SDS011;454;53.254;10.400;2022-09-09T15:40:38;0.90;;;0.90;;
934;SDS011;454;53.254;10.400;2022-09-09T15:43:05;2.93;;;1.83;;
934;SDS011;454;53.254;10.400;2022-09-09T15:45:32;1.13;;;1.10;;
934;SDS011;454;53.254;10.400;2022-09-09T15:47:59;2.60;;;2.50;;
934;SDS011;454;53.254;10.400;2022-09-09T15:50:27;4.03;;;3.73;;
934;SDS011;454;53.254;10.400;2022-09-09T15:52:56;1.70;;;1.60;;
934;SDS011;454;53.254;10.400;2022-09-09T15:55:23;2.93;;;2.83;;
934;SDS011;454;53.254;10.400;2022-09-09T15:57:50;1.93;;;1.83;;
934;SDS011;454;53.254;10.400;2022-09-09T16:00:18;1.30;;;1.23;;
934;SDS011;454;53.254;10.400;2022-09-09T16:02:45;1.20;;;1.20;;
934;SDS011;454;53.254;10.400;2022-09-09T16:05:12;1.50;;;1.50;;
934;SDS011;454;53.254;10.400;2022-09-09T16:07:41;1.13;;;1.13;;
934;SDS011;454;53.254;10.400;2022-09-09T16:10:08;3.23;;;3.03;;
934;SDS011;454;53.254;10.400;2022-09-09T16:12:36;2.40;;;2.40;;
934;SDS011;454;53.254;10.400;2022-09-09T16:15:04;2.67;;;2.57;;
934;SDS011;454;53.254;10.400;2022-09-09T16:17:32;2.60;;;2.50;;
934;SDS011;454;53.254;10.400;2022-09-09T16:20:02;3.13;;;2.80;;
934;SDS011;454;53.254;10.400;2022-09-09T16:22:32;6.33;;;5.93;;
934;SDS011;454;53.254;10.400;2022-09-09T16:25:00;3.07;;;2.87;;
934;SDS011;454;53.254;10.400;2022-09-09T16:27:27;3.63;;;3.50;;
934;SDS011;454;53.254;10.400;2022-09-09T16:29:53;3.47;;;3.27;;
934;SDS011;454;53.254;10.400;2022-09-09T16:32:20;2.10;;;2.10;;
934;SDS011;454;53.254;10.400;2022-09-09T16:34:47;2.37;;;2.27;;
934;SDS011;454;53.254;10.400;2022-09-09T16:37:14;3.20;;;3.00;;
934;SDS011;454;53.254;10.400;2022-09-09T16:39:40;2.27;;;2.13;;
934;SDS011;454;53.254;10.400;2022-09-09T16:42:08;5.60;;;4.43;;
934;SDS011;454;53.254;10.400;2022-09-09T16:44:35;2.70;;;2.60;;
934;SDS011;454;53.254;10.400;2022-09-09T16:47:02;3.40;;;3.30;;
934;SDS011;454;53.254;10.400;2022-09-09T16:49:29;3.60;;;3.40;;
934;SDS011;454;53.254;10.400;2022-09-09T16:51:57;2.50;;;2.40;;
934;SDS011;454;53.254;10.400;2022-09-09T16:54:25;2.23;;;2.13;;
934;SDS011;454;53.254;10.400;2022-09-09T16:56:52;3.30;;;3.00;;
934;SDS011;454;53.254;10.400;2022-09-09T16:59:20;2.20;;;2.10;;
934;SDS011;454;53.254;10.400;2022-09-09T17:01:48;1.73;;;1.60;;
934;SDS011;454;53.254;10.400;2022-09-09T17:04:17;1.43;;;1.43;;
934;SDS011;454;53.254;10.400;2022-09-09T17:06:46;1.90;;;1.90;;
934;SDS011;454;53.254;10.400;2022-09-09T17:09:15;1.57;;;1.57;;
934;SDS011;454;53.254;10.400;2022-09-09T17:11:43;1.90;;;1.90;;
934;SDS011;454;53.254;10.400;2022-09-09T17:14:11;2.77;;;2.50;;
934;SDS011;454;53.254;10.400;2022-09-09T17:16:42;1.30;;;1.30;;
934;SDS011;454;53.254;10.400;2022-09-09T17:19:08;1.70;;;1.70;;
934;SDS011;454;53.254;10.400;2022-09-09T17:21:36;1.33;;;1.33;;
934;SDS011;454;53.254;10.400;2022-09-09T17:24:04;4.37;;;2.00;;
934;SDS011;454;53.254;10.400;2022-09-09T17:26:32;1.70;;;1.70;;
934;SDS011;454;53.254;10.400;2022-09-09T17:29:00;1.20;;;1.10;;
934;SDS011;454;53.254;10.400;2022-09-09T17:31:28;1.57;;;1.57;;
934;SDS011;454;53.254;10.400;2022-09-09T17:33:58;2.10;;;2.10;;
934;SDS011;454;53.254;10.400;2022-09-09T17:36:26;1.97;;;1.97;;
934;SDS011;454;53.254;10.400;2022-09-09T17:38:55;2.03;;;1.93;;
934;SDS011;454;53.254;10.400;2022-09-09T17:41:23;1.43;;;1.43;;
934;SDS011;454;53.254;10.400;2022-09-09T17:43:51;1.67;;;1.67;;
934;SDS011;454;53.254;10.400;2022-09-09T17:46:18;2.40;;;2.20;;
934;SDS011;454;53.254;10.400;2022-09-09T17:48:47;2.03;;;2.00;;
934;SDS011;454;53.254;10.400;2022-09-09T17:51:17;3.50;;;2.40;;
934;SDS011;454;53.254;10.400;2022-09-09T17:53:45;2.57;;;2.13;;
934;SDS011;454;53.254;10.400;2022-09-09T17:56:14;1.77;;;1.77;;
934;SDS011;454;53.254;10.400;2022-09-09T17:58:45;1.93;;;1.90;;
934;SDS011;454;53.254;10.400;2022-09-09T18:01:12;2.23;;;2.17;;
934;SDS011;454;53.254;10.400;2022-09-09T18:03:41;1.80;;;1.70;;
934;SDS011;454;53.254;10.400;2022-09-09T18:06:11;4.63;;;2.50;;
934;SDS011;454;53.254;10.400;2022-09-09T18:08:41;2.13;;;2.03;;
934;SDS011;454;53.254;10.400;2022-09-09T18:11:12;2.77;;;2.57;;
934;SDS011;454;53.254;10.400;2022-09-09T18:13:39;2.60;;;2.47;;
934;SDS011;454;53.254;10.400;2022-09-09T18:16:06;2.43;;;2.20;;
934;SDS011;454;53.254;10.400;2022-09-09T18:18:33;3.43;;;3.23;;
934;SDS011;454;53.254;10.400;2022-09-09T18:21:01;3.27;;;3.17;;
934;SDS011;454;53.254;10.400;2022-09-09T18:23:30;3.57;;;3.27;;
934;SDS011;454;53.254;10.400;2022-09-09T18:26:00;1.97;;;1.93;;
934;SDS011;454;53.254;10.400;2022-09-09T18:28:27;3.27;;;2.73;;
934;SDS011;454;53.254;10.400;2022-09-09T18:30:53;1.87;;;1.80;;
934;SDS011;454;53.254;10.400;2022-09-09T18:33:20;2.73;;;2.40;;
934;SDS011;454;53.254;10.400;2022-09-09T18:35:47;5.40;;;2.40;;
934;SDS011;454;53.254;10.400;2022-09-09T18:38:13;5.50;;;2.63;;
934;SDS011;454;53.254;10.400;2022-09-09T18:40:41;2.50;;;2.40;;
934;SDS011;454;53.254;10.400;2022-09-09T18:43:09;2.50;;;2.33;;
934;SDS011;454;53.254;10.400;2022-09-09T18:45:36;2.03;;;2.00;;
934;SDS011;454;53.254;10.400;2022-09-09T18:48:03;2.00;;;1.90;;
934;SDS011;454;53.254;10.400;2022-09-09T18:50:30;2.60;;;2.50;;
934;SDS011;454;53.254;10.400;2022-09-09T18:52:58;1.70;;;1.70;;
934;SDS011;454;53.254;10.400;2022-09-09T18:55:25;2.90;;;2.70;;
934;SDS011;454;53.254;10.400;2022-09-09T18:57:52;2.40;;;2.20;;
934;SDS011;454;53.254;10.400;2022-09-09T19:00:20;1.57;;;1.57;;
934;SDS011;454;53.254;10.400;2022-09-09T19:02:47;1.73;;;1.73;;
934;SDS011;454;53.254;10.400;2022-09-09T19:05:16;2.40;;;2.30;;
934;SDS011;454;53.254;10.400;2022-09-09T19:07:42;2.63;;;2.53;;
934;SDS011;454;53.254;10.400;2022-09-09T19:10:09;6.43;;;1.70;;
934;SDS011;454;53.254;10.400;2022-09-09T19:12:36;1.50;;;1.50;;
934;SDS011;454;53.254;10.400;2022-09-09T19:15:04;2.60;;;2.40;;
934;SDS011;454;53.254;10.400;2022-09-09T19:17:32;1.90;;;1.90;;
934;SDS011;454;53.254;10.400;2022-09-09T19:20:00;2.00;;;2.00;;
934;SDS011;454;53.254;10.400;2022-09-09T19:22:27;6.40;;;2.20;;
934;SDS011;454;53.254;10.400;2022-09-09T19:24:54;2.23;;;2.20;;
934;SDS011;454;53.254;10.400;2022-09-09T19:27:23;2.67;;;1.97;;
934;SDS011;454;53.254;10.400;2022-09-09T19:29:49;2.17;;;2.17;;
934;SDS011;454;53.254;10.400;2022-09-09T19:32:16;1.70;;;1.70;;
934;SDS011;454;53.254;10.400;2022-09-09T19:34:44;2.87;;;2.80;;
934;SDS011;454;53.254;10.400;2022-09-09T19:37:11;3.03;;;2.87;;
934;SDS011;454;53.254;10.400;2022-09-09T19:39:38;1.53;;;1.50;;
934;SDS011;454;53.254;10.400;2022-09-09T19:42:04;1.80;;;1.80;;
934;SDS011;454;53.254;10.400;2022-09-09T19:44:31;2.70;;;2.50;;
934;SDS011;454;53.254;10.400;2022-09-09T19:46:58;2.40;;;2.30;;
934;SDS011;454;53.254;10.400;2022-09-09T19:49:24;2.63;;;2.43;;